Arenapolis, Brazil
Current Conditions -  °F | °C
As of 8:45 PM on Saturday 22 Nov 2014 (Local Time) from SBCY Reporting Station
Thunderstorm Thunderstorm  
Wind Chill: 73°   Ceiling: 1800
Heat Index: 73°   Visibility: 2.5mi
Dew Point: 70°   Wind: 9mph
Humidity: 88%   Direction: 180°S
Pressure: NA   Gusts: NA
Location:  14.45°S, 56.85°W
Report Text: SBCY 222345Z 18008KT 4000 -TSRA BKN018 FEW025CB BKN070 23/21 Q1013
Loading
Personal Weather Stations






























Interactive Weather Map New forecast layout! Learn more

10-Day Weather Forecast

Advertisements
Track Severe Weather on mobile